createdAt,value
2022-10-19T00:01:19.032Z,19.00
2022-10-19T00:06:40.299Z,25.35
2022-10-19T00:09:17.956Z,23.05
2022-10-19T00:11:49.122Z,23.35
2022-10-19T00:14:22.990Z,27.00
2022-10-19T00:16:53.259Z,23.10
2022-10-19T00:19:24.706Z,17.73
2022-10-19T00:21:52.573Z,22.42
2022-10-19T00:24:21.235Z,22.38
2022-10-19T00:26:49.190Z,24.25
2022-10-19T00:29:17.379Z,18.30
2022-10-19T00:31:45.206Z,27.95
2022-10-19T00:34:13.376Z,20.08
2022-10-19T00:36:42.139Z,22.10
2022-10-19T00:39:15.584Z,18.35
2022-10-19T00:41:45.280Z,24.60
2022-10-19T00:44:13.299Z,21.75
2022-10-19T00:46:43.859Z,21.65
2022-10-19T00:51:53.388Z,21.13
2022-10-19T00:54:22.503Z,22.05
2022-10-19T00:56:53.655Z,24.23
2022-10-19T00:59:25.132Z,20.67
2022-10-19T01:01:53.547Z,22.98
2022-10-19T01:04:23.992Z,20.73
2022-10-19T01:06:53.136Z,24.13
2022-10-19T01:09:21.549Z,23.60
2022-10-19T01:11:55.492Z,23.30
2022-10-19T01:14:41.769Z,21.02
2022-10-19T01:18:05.292Z,20.38
2022-10-19T01:20:46.593Z,23.50
2022-10-19T01:23:41.317Z,25.42
2022-10-19T01:26:39.688Z,21.98
2022-10-19T01:29:31.134Z,30.15
2022-10-19T01:31:59.168Z,20.40
2022-10-19T01:34:31.678Z,27.77
2022-10-19T01:37:12.790Z,21.38
2022-10-19T01:39:46.376Z,28.58
2022-10-19T01:42:34.204Z,23.20
2022-10-19T01:45:08.027Z,23.20
2022-10-19T01:47:41.807Z,20.17
2022-10-19T01:50:16.210Z,22.95
2022-10-19T01:52:44.931Z,23.10
2022-10-19T01:55:15.128Z,23.65
2022-10-19T01:57:48.262Z,19.70
2022-10-19T02:00:23.374Z,23.02
2022-10-19T02:02:54.745Z,20.42
2022-10-19T02:05:30.552Z,22.80
2022-10-19T02:08:11.473Z,20.58
2022-10-19T02:10:41.756Z,24.67
2022-10-19T02:13:11.589Z,23.10
2022-10-19T02:15:43.118Z,16.85
2022-10-19T02:18:15.690Z,24.50
2022-10-19T02:20:43.665Z,21.83
2022-10-19T02:23:13.620Z,18.90
2022-10-19T02:25:41.641Z,20.77
2022-10-19T02:28:09.774Z,23.45
2022-10-19T02:30:37.899Z,21.13
2022-10-19T02:33:06.186Z,23.02
2022-10-19T02:35:34.108Z,22.27
2022-10-19T02:38:03.605Z,20.90
2022-10-19T02:40:42.772Z,22.40
2022-10-19T02:43:19.427Z,25.95
2022-10-19T02:45:57.973Z,19.95
2022-10-19T02:48:29.846Z,21.45
2022-10-19T02:50:57.630Z,19.05
2022-10-19T02:53:25.829Z,23.00
2022-10-19T02:55:53.620Z,23.75
2022-10-19T02:58:21.702Z,22.88
2022-10-19T03:00:52.582Z,21.48
2022-10-19T03:03:20.723Z,18.65
2022-10-19T03:05:48.758Z,24.25
2022-10-19T03:08:16.796Z,27.45
2022-10-19T03:10:44.550Z,17.23
2022-10-19T03:13:12.703Z,22.10
2022-10-19T03:15:40.550Z,19.50
2022-10-19T03:18:08.585Z,16.77
2022-10-19T03:20:36.363Z,10.65
2022-10-19T03:23:04.511Z,12.95
2022-10-19T03:25:32.257Z,13.30
2022-10-19T03:28:00.382Z,13.55
2022-10-19T03:30:28.288Z,13.23
2022-10-19T03:32:56.431Z,16.38
2022-10-19T03:35:24.324Z,19.50
2022-10-19T03:37:52.359Z,19.00
2022-10-19T03:40:20.142Z,23.65
2022-10-19T03:42:48.318Z,21.58
2022-10-19T03:45:16.179Z,25.13
2022-10-19T03:47:49.595Z,15.75
2022-10-19T03:50:17.974Z,20.98
2022-10-19T03:52:50.308Z,15.43
2022-10-19T03:55:18.298Z,23.05
2022-10-19T03:57:46.723Z,20.17
2022-10-19T04:00:14.923Z,20.63
2022-10-19T04:02:42.953Z,22.10
2022-10-19T04:05:10.898Z,27.13
2022-10-19T04:07:38.955Z,28.13
2022-10-19T04:10:07.383Z,22.80
2022-10-19T04:12:35.456Z,18.75
2022-10-19T04:15:03.316Z,22.83
2022-10-19T04:17:31.952Z,16.85
2022-10-19T04:19:59.958Z,16.27
2022-10-19T04:22:28.002Z,19.52
2022-10-19T04:24:55.784Z,26.10
2022-10-19T04:27:23.885Z,26.73
2022-10-19T04:29:51.643Z,17.05
2022-10-19T04:32:19.851Z,18.67
2022-10-19T04:34:48.102Z,27.25
2022-10-19T04:37:16.295Z,16.27
2022-10-19T04:39:44.870Z,16.48
2022-10-19T04:42:12.988Z,19.67
2022-10-19T04:44:41.740Z,23.15
2022-10-19T04:47:09.834Z,16.45
2022-10-19T04:49:37.987Z,21.02
2022-10-19T04:52:06.041Z,23.23
2022-10-19T04:54:33.778Z,16.27
2022-10-19T04:57:02.091Z,18.77
2022-10-19T04:59:29.968Z,19.20
2022-10-19T05:01:58.026Z,16.15
2022-10-19T05:04:25.869Z,20.08
2022-10-19T05:06:54.067Z,23.00
2022-10-19T05:09:21.843Z,18.30
2022-10-19T05:11:53.122Z,14.05
2022-10-19T05:16:49.152Z,14.73
2022-10-19T05:19:17.019Z,17.30
2022-10-19T05:21:45.093Z,18.95
2022-10-19T05:24:14.019Z,16.95
2022-10-19T05:26:42.135Z,22.23
2022-10-19T05:29:12.738Z,22.17
2022-10-19T05:31:41.618Z,22.02
2022-10-19T05:34:09.410Z,18.73
2022-10-19T05:36:41.046Z,20.23
2022-10-19T05:39:18.761Z,14.30
2022-10-19T05:41:47.999Z,15.82
2022-10-19T05:44:18.642Z,35.03
2022-10-19T05:49:16.264Z,20.55
2022-10-19T05:51:44.841Z,21.63
2022-10-19T05:54:14.352Z,16.30
2022-10-19T05:56:43.438Z,24.00
2022-10-19T05:59:15.937Z,17.63
2022-10-19T06:01:44.210Z,17.65
2022-10-19T06:04:14.298Z,12.80
2022-10-19T06:06:43.912Z,12.10
2022-10-19T06:09:11.774Z,20.63
2022-10-19T06:11:42.668Z,17.25
2022-10-19T06:14:16.119Z,14.52
2022-10-19T06:16:46.311Z,15.27
2022-10-19T06:19:14.524Z,10.35
2022-10-19T06:21:46.008Z,9.68
2022-10-19T06:24:14.129Z,11.40
2022-10-19T06:26:42.357Z,13.30
2022-10-19T06:29:28.928Z,11.77
2022-10-19T06:31:57.108Z,16.65
2022-10-19T06:34:25.246Z,21.10
2022-10-19T06:36:53.473Z,21.08
2022-10-19T06:39:21.476Z,16.65
2022-10-19T06:41:49.699Z,28.02
2022-10-19T06:46:48.787Z,21.58
2022-10-19T06:49:16.864Z,23.77
2022-10-19T06:51:45.229Z,16.33
2022-10-19T06:54:17.537Z,22.83
2022-10-19T06:56:45.782Z,28.83
2022-10-19T06:59:14.933Z,29.25
2022-10-19T07:01:43.264Z,19.80
2022-10-19T07:04:11.030Z,11.35
2022-10-19T07:06:39.353Z,11.43
2022-10-19T07:09:07.203Z,10.45
2022-10-19T07:11:35.276Z,14.55
2022-10-19T07:14:03.188Z,12.35
2022-10-19T07:16:31.283Z,14.82
2022-10-19T07:19:01.024Z,12.57
2022-10-19T07:21:29.204Z,15.13
2022-10-19T07:23:57.110Z,12.73
2022-10-19T07:26:28.410Z,8.32
2022-10-19T07:28:57.765Z,10.35
2022-10-19T07:31:28.469Z,11.55
2022-10-19T07:33:58.131Z,7.35
2022-10-19T07:36:27.295Z,5.93
2022-10-19T07:38:55.761Z,7.75
2022-10-19T07:41:26.786Z,4.70
2022-10-19T07:46:25.738Z,6.78
2022-10-19T07:48:54.516Z,9.55
2022-10-19T07:51:23.960Z,9.25
2022-10-19T07:53:52.239Z,8.65
2022-10-19T07:56:23.050Z,6.70
2022-10-19T07:58:52.861Z,8.18
2022-10-19T08:01:23.182Z,4.68
2022-10-19T08:06:41.829Z,6.65
2022-10-19T08:09:11.305Z,4.40
2022-10-19T08:11:43.798Z,9.43
2022-10-19T08:14:11.603Z,6.80
2022-10-19T08:16:44.531Z,5.50
2022-10-19T08:19:15.187Z,3.63
2022-10-19T08:24:14.324Z,2.65
2022-10-19T08:26:43.381Z,2.90
2022-10-19T08:29:16.740Z,3.63
2022-10-19T08:31:46.463Z,3.03
2022-10-19T08:34:14.911Z,4.53
2022-10-19T08:36:43.237Z,9.55
2022-10-19T08:39:12.921Z,3.30
2022-10-19T08:41:41.342Z,5.50
2022-10-19T08:44:15.150Z,2.60
2022-10-19T08:47:14.288Z,3.15
2022-10-19T08:49:42.699Z,2.13
2022-10-19T08:52:13.445Z,4.18
2022-10-19T08:55:15.038Z,5.93
2022-10-19T08:58:04.195Z,2.35
2022-10-19T09:00:48.830Z,4.90
2022-10-19T09:03:44.007Z,3.42
2022-10-19T09:06:36.528Z,5.47
2022-10-19T09:09:06.769Z,9.25
2022-10-19T09:11:41.033Z,4.10
2022-10-19T09:14:41.598Z,4.60
2022-10-19T09:17:17.415Z,2.63
2022-10-19T09:19:45.860Z,5.88
2022-10-19T09:22:36.081Z,3.22
2022-10-19T09:25:19.313Z,3.35
2022-10-19T09:27:53.569Z,3.45
2022-10-19T09:30:24.074Z,3.13
2022-10-19T09:33:01.736Z,1.40
2022-10-19T09:35:39.127Z,1.30
2022-10-19T09:38:08.088Z,1.00
2022-10-19T09:40:36.187Z,3.17
2022-10-19T09:43:20.672Z,1.20
2022-10-19T09:46:05.056Z,0.60
2022-10-19T09:48:42.090Z,0.77
2022-10-19T09:51:17.816Z,2.53
2022-10-19T09:53:56.144Z,2.30
2022-10-19T09:56:29.872Z,2.67
2022-10-19T09:58:59.086Z,3.05
2022-10-19T10:01:39.993Z,1.35
2022-10-19T10:04:18.913Z,2.40
2022-10-19T10:06:49.008Z,1.45
2022-10-19T10:09:19.097Z,2.25
2022-10-19T10:11:50.014Z,4.55
2022-10-19T10:14:23.538Z,1.88
2022-10-19T10:17:22.125Z,0.60
2022-10-19T10:20:06.832Z,1.58
2022-10-19T10:22:37.132Z,3.25
2022-10-19T10:25:17.100Z,0.80
2022-10-19T10:27:56.361Z,4.97
2022-10-19T10:30:24.790Z,12.02
2022-10-19T10:33:04.719Z,9.57
2022-10-19T10:35:53.743Z,7.03
2022-10-19T10:38:28.590Z,14.63
2022-10-19T10:41:23.464Z,7.20
2022-10-19T10:44:09.295Z,8.27
2022-10-19T10:46:51.745Z,6.88
2022-10-19T10:49:29.180Z,4.28
2022-10-19T10:52:18.214Z,1.52
2022-10-19T10:55:14.885Z,6.43
2022-10-19T10:57:48.831Z,3.10
2022-10-19T11:00:19.917Z,1.52
2022-10-19T11:03:13.816Z,2.45
2022-10-19T11:05:45.047Z,4.03
2022-10-19T11:08:12.776Z,4.25
2022-10-19T11:10:49.482Z,2.40
2022-10-19T11:14:01.349Z,1.98
2022-10-19T11:16:40.153Z,1.88
2022-10-19T11:19:32.503Z,8.52
2022-10-19T11:22:10.490Z,6.07
2022-10-19T11:24:38.207Z,5.50
2022-10-19T11:27:42.627Z,2.60
2022-10-19T11:30:20.566Z,2.78
2022-10-19T11:32:54.472Z,1.23
2022-10-19T11:35:44.517Z,4.68
2022-10-19T11:38:20.024Z,2.13
2022-10-19T11:41:27.100Z,3.97
2022-10-19T11:44:06.975Z,5.80
2022-10-19T11:47:18.234Z,3.72
2022-10-19T11:50:12.787Z,3.67
2022-10-19T11:53:03.521Z,0.80
2022-10-19T11:58:25.237Z,4.80
2022-10-19T12:01:14.993Z,1.63
2022-10-19T12:03:45.566Z,3.60
2022-10-19T12:06:25.586Z,5.53
2022-10-19T12:09:21.874Z,3.08
2022-10-19T12:12:02.491Z,3.72
2022-10-19T12:14:39.111Z,6.72
2022-10-19T12:17:16.103Z,2.35
2022-10-19T12:19:49.417Z,4.00
2022-10-19T12:22:25.011Z,9.23
2022-10-19T12:24:58.526Z,2.92
2022-10-19T12:27:41.149Z,5.55
2022-10-19T12:30:13.725Z,6.63
2022-10-19T12:32:54.437Z,7.68
2022-10-19T12:35:35.383Z,2.97
2022-10-19T12:38:26.553Z,14.32
2022-10-19T12:41:08.450Z,2.45
2022-10-19T12:43:53.801Z,3.97
2022-10-19T12:46:30.700Z,4.35
2022-10-19T12:49:26.772Z,12.30
2022-10-19T12:51:59.887Z,14.52
2022-10-19T12:54:34.285Z,6.97
2022-10-19T12:57:04.774Z,3.08
2022-10-19T12:59:35.546Z,1.90
2022-10-19T13:02:06.886Z,2.05
2022-10-19T13:04:37.917Z,2.60
2022-10-19T13:07:11.171Z,2.47
2022-10-19T13:09:40.932Z,4.32
2022-10-19T13:12:22.133Z,5.72
2022-10-19T13:14:55.638Z,2.97
2022-10-19T13:17:38.569Z,3.40
2022-10-19T13:20:15.840Z,7.55
2022-10-19T13:23:06.321Z,1.73
2022-10-19T13:25:36.421Z,0.88
2022-10-19T13:28:07.043Z,0.35
2022-10-19T13:33:33.348Z,11.65
2022-10-19T13:36:04.473Z,3.45
2022-10-19T13:38:43.547Z,1.63
2022-10-19T13:41:51.762Z,7.50
2022-10-19T13:44:25.286Z,1.70
2022-10-19T13:47:02.015Z,1.75
2022-10-19T13:49:41.737Z,15.05
2022-10-19T13:52:37.896Z,1.30
2022-10-19T13:55:28.085Z,5.70
2022-10-19T13:58:14.309Z,4.68
2022-10-19T14:01:10.984Z,5.63
2022-10-19T14:04:00.827Z,6.38
2022-10-19T14:06:53.529Z,3.00
2022-10-19T14:09:29.797Z,4.03
2022-10-19T14:12:25.219Z,3.58
2022-10-19T14:14:54.053Z,3.00
2022-10-19T14:17:34.229Z,6.53
2022-10-19T14:22:34.291Z,7.20
2022-10-19T14:25:19.750Z,6.03
2022-10-19T14:27:52.040Z,6.55
2022-10-19T14:30:32.731Z,4.32
2022-10-19T14:33:06.860Z,4.68
2022-10-19T14:35:41.127Z,3.08
2022-10-19T14:38:16.766Z,2.60
2022-10-19T14:40:44.943Z,5.03
2022-10-19T14:43:24.654Z,2.90
2022-10-19T14:46:08.301Z,5.15
2022-10-19T14:48:40.148Z,2.60
2022-10-19T14:51:43.420Z,4.07
2022-10-19T14:54:30.954Z,5.97
2022-10-19T14:57:08.329Z,16.60
2022-10-19T14:59:46.554Z,5.35
2022-10-19T15:02:42.935Z,15.27
2022-10-19T15:05:24.052Z,3.08
2022-10-19T15:07:55.408Z,9.25
2022-10-19T15:10:41.165Z,4.93
2022-10-19T15:13:25.204Z,4.25
2022-10-19T15:15:57.083Z,7.40
2022-10-19T15:18:50.535Z,10.70
2022-10-19T15:21:20.383Z,8.70
2022-10-19T15:23:52.971Z,7.30
2022-10-19T15:26:29.508Z,15.25
2022-10-19T15:29:19.983Z,62.05
2022-10-19T15:31:52.805Z,30.05
2022-10-19T15:34:30.866Z,16.17
2022-10-19T15:37:01.308Z,25.38
2022-10-19T15:39:41.028Z,23.95
2022-10-19T15:42:31.301Z,20.30
2022-10-19T15:45:00.445Z,20.13
2022-10-19T15:47:28.302Z,14.82
2022-10-19T15:50:02.115Z,27.35
2022-10-19T15:52:34.711Z,21.63
2022-10-19T15:55:03.062Z,21.02
2022-10-19T15:57:35.738Z,19.25
2022-10-19T16:00:16.242Z,16.08
2022-10-19T16:02:44.422Z,61.90
2022-10-19T16:05:12.510Z,15.82
2022-10-19T16:07:44.037Z,18.38
2022-10-19T16:10:20.704Z,17.48
2022-10-19T16:12:48.673Z,17.13
2022-10-19T16:15:22.576Z,16.20
2022-10-19T16:17:59.520Z,19.45
2022-10-19T16:20:29.605Z,23.52
2022-10-19T16:22:58.574Z,20.20
2022-10-19T16:25:26.641Z,24.45
2022-10-19T16:27:54.410Z,23.95
2022-10-19T16:30:22.487Z,21.50
2022-10-19T16:32:52.470Z,12.67
2022-10-19T16:35:23.333Z,14.95
2022-10-19T16:37:51.327Z,24.35
2022-10-19T16:40:22.469Z,29.67
2022-10-19T16:45:20.758Z,67.47
2022-10-19T16:47:50.681Z,26.77
2022-10-19T16:50:21.744Z,20.10
2022-10-19T16:53:10.353Z,20.00
2022-10-19T16:55:40.737Z,11.43
2022-10-19T16:58:08.985Z,14.13
2022-10-19T17:00:37.365Z,18.30
2022-10-19T17:03:07.981Z,30.97
2022-10-19T17:05:40.381Z,38.17
2022-10-19T17:08:14.292Z,38.20
2022-10-19T17:10:42.685Z,23.23
2022-10-19T17:13:10.439Z,20.55
2022-10-19T17:15:43.077Z,13.77
2022-10-19T17:18:13.540Z,18.98
2022-10-19T17:20:41.686Z,16.30
2022-10-19T17:23:09.465Z,21.80
2022-10-19T17:25:41.078Z,14.77
2022-10-19T17:28:08.903Z,17.30
2022-10-19T17:30:41.578Z,21.15
2022-10-19T17:33:09.545Z,20.58
2022-10-19T17:35:37.687Z,17.40
2022-10-19T17:38:07.526Z,16.52
2022-10-19T17:40:36.093Z,13.30
2022-10-19T17:43:03.939Z,16.35
2022-10-19T17:45:32.061Z,17.83
2022-10-19T17:47:59.909Z,18.65
2022-10-19T17:50:27.966Z,13.10
2022-10-19T17:52:55.750Z,19.77
2022-10-19T17:55:23.945Z,20.45
2022-10-19T17:57:51.719Z,23.48
2022-10-19T18:00:20.016Z,24.40
2022-10-19T18:02:49.151Z,16.23
2022-10-19T18:05:19.891Z,16.33
2022-10-19T18:07:49.402Z,16.48
2022-10-19T18:10:20.661Z,15.95
2022-10-19T18:15:20.128Z,17.75
2022-10-19T18:17:47.932Z,18.38
2022-10-19T18:20:18.771Z,17.40
2022-10-19T18:22:47.043Z,17.52
2022-10-19T18:25:21.846Z,19.33
2022-10-19T18:27:58.738Z,23.50
2022-10-19T18:30:26.807Z,33.20
2022-10-19T18:32:54.692Z,33.17
2022-10-19T18:35:22.839Z,39.42
2022-10-19T18:37:50.605Z,91.30
2022-10-19T18:40:19.102Z,86.03
2022-10-19T18:42:46.988Z,38.50
2022-10-19T18:45:15.658Z,25.30
2022-10-19T18:47:43.419Z,24.63
2022-10-19T18:50:13.273Z,23.08
2022-10-19T18:52:41.263Z,25.17
2022-10-19T18:55:09.860Z,29.75
2022-10-19T18:57:37.781Z,34.47
2022-10-19T19:00:06.673Z,23.75
2022-10-19T19:02:46.309Z,19.85
2022-10-19T19:05:15.575Z,22.90
2022-10-19T19:07:43.366Z,19.75
2022-10-19T19:10:14.791Z,26.42
2022-10-19T19:12:45.505Z,24.83
2022-10-19T19:15:13.850Z,28.05
2022-10-19T19:17:41.732Z,23.27
2022-10-19T19:20:10.418Z,25.48
2022-10-19T19:22:38.441Z,77.57
2022-10-19T19:25:06.983Z,28.27
2022-10-19T19:27:34.851Z,15.25
2022-10-19T19:30:04.974Z,18.92
2022-10-19T19:32:34.871Z,17.57
2022-10-19T19:35:03.388Z,28.15
2022-10-19T19:37:31.208Z,31.85
2022-10-19T19:39:59.321Z,22.40
2022-10-19T19:42:27.972Z,30.02
2022-10-19T19:44:56.214Z,40.22
2022-10-19T19:47:24.111Z,53.50
2022-10-19T19:49:52.442Z,40.17
2022-10-19T19:52:20.241Z,22.52
2022-10-19T19:54:48.737Z,22.55
2022-10-19T19:57:17.016Z,18.63
2022-10-19T19:59:45.245Z,34.00
2022-10-19T20:02:13.120Z,37.80
2022-10-19T20:04:42.365Z,15.35
2022-10-19T20:07:10.119Z,21.52
2022-10-19T20:09:38.337Z,9.00
2022-10-19T20:12:06.271Z,14.30
2022-10-19T20:14:34.358Z,18.23
2022-10-19T20:17:02.305Z,14.13
2022-10-19T20:19:30.529Z,13.15
2022-10-19T20:22:01.440Z,15.98
2022-10-19T20:24:31.070Z,11.48
2022-10-19T20:27:01.195Z,10.98
2022-10-19T20:29:29.430Z,10.77
2022-10-19T20:31:57.430Z,8.98
2022-10-19T20:34:25.675Z,11.80
2022-10-19T20:36:53.519Z,12.07
2022-10-19T20:39:22.560Z,12.98
2022-10-19T20:41:50.385Z,14.38
2022-10-19T20:44:18.754Z,12.73
2022-10-19T20:46:49.084Z,17.05
2022-10-19T20:49:17.382Z,12.00
2022-10-19T20:51:45.485Z,13.20
2022-10-19T20:54:14.047Z,14.48
2022-10-19T20:56:42.891Z,12.75
2022-10-19T20:59:16.607Z,13.23
2022-10-19T21:01:45.871Z,6.97
2022-10-19T21:04:15.292Z,9.25
2022-10-19T21:06:48.700Z,16.75
2022-10-19T21:09:21.402Z,13.60
2022-10-19T21:11:51.271Z,28.45
2022-10-19T21:14:28.073Z,20.85
2022-10-19T21:16:58.700Z,18.38
2022-10-19T21:19:28.912Z,14.18
2022-10-19T21:22:02.147Z,12.00
2022-10-19T21:24:33.941Z,10.25
2022-10-19T21:27:05.009Z,10.65
2022-10-19T21:29:33.476Z,10.32
2022-10-19T21:32:01.248Z,12.38
2022-10-19T21:34:31.049Z,17.90
2022-10-19T21:36:59.548Z,20.00
2022-10-19T21:39:30.080Z,20.48
2022-10-19T21:41:58.214Z,9.13
2022-10-19T21:44:26.465Z,17.92
2022-10-19T21:46:54.230Z,15.82
2022-10-19T21:49:22.293Z,14.57
2022-10-19T21:51:54.444Z,17.52
2022-10-19T21:54:29.537Z,16.13
2022-10-19T21:56:58.751Z,17.35
2022-10-19T21:59:26.922Z,17.75
2022-10-19T22:01:55.438Z,13.52
2022-10-19T22:04:26.561Z,10.07
2022-10-19T22:06:54.515Z,7.88
2022-10-19T22:09:23.186Z,9.20
2022-10-19T22:11:53.460Z,6.40
2022-10-19T22:14:21.781Z,9.85
2022-10-19T22:16:49.647Z,9.30
2022-10-19T22:19:18.404Z,9.75
2022-10-19T22:21:46.473Z,8.63
2022-10-19T22:24:15.867Z,7.75
2022-10-19T22:26:47.388Z,12.13
2022-10-19T22:29:15.633Z,9.55
2022-10-19T22:31:45.716Z,12.05
2022-10-19T22:34:16.763Z,24.02
2022-10-19T22:36:45.309Z,18.75
2022-10-19T22:39:17.087Z,12.32
2022-10-19T22:41:44.851Z,18.02
2022-10-19T22:44:12.861Z,13.32
2022-10-19T22:46:40.598Z,10.82
2022-10-19T22:51:57.163Z,13.23
2022-10-19T22:54:25.268Z,13.13
2022-10-19T22:56:53.762Z,15.75
2022-10-19T22:59:21.904Z,9.73
2022-10-19T23:01:49.671Z,9.82
2022-10-19T23:04:21.406Z,13.75
2022-10-19T23:06:49.233Z,30.20
2022-10-19T23:09:20.274Z,19.42
2022-10-19T23:11:49.328Z,13.60
2022-10-19T23:14:17.473Z,20.05
2022-10-19T23:16:45.218Z,17.73
2022-10-19T23:19:13.457Z,27.38
2022-10-19T23:21:41.254Z,24.27
2022-10-19T23:24:09.292Z,31.10
2022-10-19T23:26:37.373Z,27.55
2022-10-19T23:29:05.741Z,29.63
2022-10-19T23:31:34.013Z,23.33
2022-10-19T23:34:02.457Z,18.17
2022-10-19T23:36:30.426Z,34.08
2022-10-19T23:38:59.102Z,46.05
2022-10-19T23:41:27.077Z,25.48
2022-10-19T23:43:55.199Z,31.05
2022-10-19T23:46:23.057Z,22.83
2022-10-19T23:48:51.194Z,16.02
2022-10-19T23:51:21.388Z,17.92
2022-10-19T23:53:51.894Z,10.82
2022-10-19T23:56:29.368Z,9.73
2022-10-19T23:58:59.914Z,7.63
